Time;durP1;ratioP1;P1;durP2;ratioP2;P2;SDS_P1;SDS_P2;PMS_P1;PMS_P2;Temp;Humidity;BMP_temperature;BMP_pressure;BME280_temperature;BME280_humidity;BME280_pressure;Samples;Min_cycle;Max_cycle;Signal;HPM_P1;HPM_P2
2021/05/20 00:01:14;;;;;;;12.98;1.83;;;;;;;13.49;65.38;93117.38;4995116;28;20026;-70
2021/05/20 00:03:40;;;;;;;7.72;1.98;;;;;;;13.39;65.88;93129.41;5013124;28;20022;-70
2021/05/20 00:06:05;;;;;;;9.90;1.70;;;;;;;13.33;66.73;93119.28;4995012;28;20068;-71
2021/05/20 00:08:31;;;;;;;18.88;2.17;;;;;;;13.28;67.20;93122.22;5012732;28;20026;-70
2021/05/20 00:10:56;;;;;;;15.77;3.60;;;;;;;13.24;67.98;93127.47;5012614;28;20030;-70
2021/05/20 00:13:22;;;;;;;9.15;2.00;;;;;;;13.16;67.98;93120.41;4994826;28;20389;-70
2021/05/20 00:15:47;;;;;;;8.10;2.05;;;;;;;13.12;67.82;93122.22;4995186;28;20108;-70
2021/05/20 00:18:13;;;;;;;8.85;2.17;;;;;;;13.01;68.27;93114.72;5012492;28;20505;-70
2021/05/20 00:20:38;;;;;;;7.93;1.42;;;;;;;12.99;68.17;93126.91;4995099;28;20030;-71
2021/05/20 00:23:03;;;;;;;10.50;3.22;;;;;;;12.96;68.80;93114.22;5012583;28;20064;-71
2021/05/20 00:25:29;;;;;;;11.23;2.08;;;;;;;12.88;68.93;93128.53;5012388;28;20038;-71
2021/05/20 00:27:54;;;;;;;8.77;2.33;;;;;;;12.88;69.31;93134.66;4998562;28;20060;-71
2021/05/20 00:30:20;;;;;;;13.30;2.05;;;;;;;12.87;68.76;93122.41;4976384;28;20030;-71
2021/05/20 00:32:45;;;;;;;8.18;2.33;;;;;;;12.86;68.59;93123.53;5001395;28;20418;-70
2021/05/20 00:35:11;;;;;;;7.88;2.03;;;;;;;12.86;68.13;93128.88;4975257;28;20524;-71
2021/05/20 00:37:36;;;;;;;9.82;2.28;;;;;;;12.90;68.48;93105.66;4992096;28;20026;-71
2021/05/20 00:40:04;;;;;;;11.93;2.25;;;;;;;12.97;68.88;93111.19;4989619;28;20020;-70
2021/05/20 00:42:29;;;;;;;5.88;1.80;;;;;;;13.04;69.71;93110.59;5003343;28;20093;-70
2021/05/20 00:44:59;;;;;;;8.95;2.17;;;;;;;13.09;70.09;93099.63;4978186;28;20021;-70
2021/05/20 00:47:29;;;;;;;8.82;2.20;;;;;;;13.13;70.44;93102.41;5013284;28;20022;-70
2021/05/20 00:49:55;;;;;;;10.23;1.70;;;;;;;13.18;70.52;93107.47;5027091;28;20319;-70
2021/05/20 00:52:21;;;;;;;8.10;3.35;;;;;;;13.15;70.28;93108.19;4994353;28;20089;-70
2021/05/20 00:54:50;;;;;;;7.68;2.30;;;;;;;13.14;70.62;93115.41;4994317;28;20028;-70
2021/05/20 00:57:15;;;;;;;8.68;1.88;;;;;;;12.96;70.74;93112.31;4994386;28;20030;-70
2021/05/20 00:59:41;;;;;;;3.65;1.38;;;;;;;12.96;71.00;93109.63;4994030;28;20485;-70
2021/05/20 01:02:08;;;;;;;9.30;2.13;;;;;;;12.98;70.74;93104.72;4994285;28;20049;-70
2021/05/20 01:04:34;;;;;;;7.47;1.95;;;;;;;13.05;71.10;93098.78;4993992;28;20404;-70
2021/05/20 01:06:59;;;;;;;11.68;2.30;;;;;;;13.11;70.37;93089.34;5012010;28;20030;-70
2021/05/20 01:09:25;;;;;;;8.30;1.63;;;;;;;13.13;68.99;93099.72;5012975;28;20115;-70
2021/05/20 01:11:51;;;;;;;9.40;2.03;;;;;;;13.12;69.66;93098.16;5013569;28;20037;-70
2021/05/20 01:14:16;;;;;;;8.05;2.28;;;;;;;13.18;69.67;93091.41;5031248;28;20017;-70
2021/05/20 01:16:41;;;;;;;7.57;2.20;;;;;;;13.23;69.66;93089.25;5031076;28;20045;-70
2021/05/20 01:19:07;;;;;;;5.50;1.70;;;;;;;13.29;69.41;93091.66;5023383;28;20096;-70
2021/05/20 01:21:34;;;;;;;7.95;2.10;;;;;;;13.34;69.17;93099.44;5022925;28;20469;-70
2021/05/20 01:24:01;;;;;;;8.13;1.80;;;;;;;13.34;69.98;93086.06;5002342;28;20091;-70
2021/05/20 01:26:28;;;;;;;5.50;2.22;;;;;;;13.34;70.40;93084.16;5013221;28;20026;-70
2021/05/20 01:28:54;;;;;;;10.90;2.65;;;;;;;13.36;70.26;93087.25;5026702;28;20025;-70
2021/05/20 01:31:19;;;;;;;7.28;2.17;;;;;;;13.40;70.16;93071.28;5021765;28;20572;-70
2021/05/20 01:33:45;;;;;;;10.25;2.20;;;;;;;13.34;69.29;93073.47;5027272;28;20025;-70
2021/05/20 01:36:10;;;;;;;7.40;2.08;;;;;;;13.33;69.32;93066.56;5005481;28;20029;-70
2021/05/20 01:41:06;;;;;;;14.82;2.05;;;;;;;13.36;69.85;93060.50;5010895;28;20524;-70
2021/05/20 01:43:32;;;;;;;7.80;1.60;;;;;;;13.31;69.21;93055.44;5012662;28;20097;-69
2021/05/20 01:45:59;;;;;;;7.53;2.20;;;;;;;13.19;69.09;93044.81;5030493;28;20025;-70
2021/05/20 01:48:26;;;;;;;10.10;1.92;;;;;;;13.13;68.83;93040.84;4999354;28;20030;-70
2021/05/20 01:50:53;;;;;;;9.15;2.10;;;;;;;13.05;69.23;93042.59;5011983;28;20408;-69
2021/05/20 01:53:19;;;;;;;8.25;1.83;;;;;;;12.92;69.39;93041.13;5018311;28;20033;-69
2021/05/20 01:55:48;;;;;;;7.18;1.85;;;;;;;12.93;68.95;93035.44;5028336;28;20497;-69
2021/05/20 01:58:13;;;;;;;7.30;1.70;;;;;;;12.84;69.28;93034.84;5010469;28;20030;-70
2021/05/20 02:00:39;;;;;;;4.72;1.70;;;;;;;12.74;69.45;93035.38;4992862;28;20068;-69
2021/05/20 02:03:04;;;;;;;4.68;1.83;;;;;;;12.59;69.86;93032.34;4992704;28;20029;-69
2021/05/20 02:05:29;;;;;;;8.90;2.72;;;;;;;12.59;70.13;93024.34;5010639;28;20021;-70
2021/05/20 02:07:55;;;;;;;8.38;2.72;;;;;;;12.59;69.99;93023.56;4992779;28;20028;-69
2021/05/20 02:10:20;;;;;;;9.23;2.60;;;;;;;12.58;69.83;93020.13;4992677;28;20110;-70
2021/05/20 02:12:46;;;;;;;9.50;2.38;;;;;;;12.45;69.85;93024.75;5026300;28;20096;-69
2021/05/20 02:15:11;;;;;;;9.82;2.70;;;;;;;12.29;70.98;93028.56;5024218;28;20129;-70
2021/05/20 02:17:37;;;;;;;6.93;2.22;;;;;;;12.17;71.59;93024.84;5010101;28;20038;-69
2021/05/20 02:20:07;;;;;;;7.88;1.67;;;;;;;12.07;72.11;93027.22;5010357;28;20183;-70
2021/05/20 02:22:33;;;;;;;10.07;1.63;;;;;;;11.91;72.43;93027.97;4975066;28;20026;-69
2021/05/20 02:24:59;;;;;;;13.07;2.13;;;;;;;11.92;72.18;93023.41;4994058;28;20033;-69
2021/05/20 02:27:25;;;;;;;4.13;1.52;;;;;;;11.85;72.47;93010.63;5004723;28;20034;-69
2021/05/20 02:29:50;;;;;;;7.45;2.67;;;;;;;11.82;72.43;92998.75;4989308;28;20021;-69
2021/05/20 02:32:15;;;;;;;11.73;2.67;;;;;;;11.82;72.43;93003.28;4997247;28;20084;-69
2021/05/20 02:34:41;;;;;;;10.45;3.15;;;;;;;11.76;72.51;93005.41;4991997;28;20100;-69
2021/05/20 02:37:06;;;;;;;9.75;2.72;;;;;;;11.75;72.81;92997.78;4979266;28;20026;-69
2021/05/20 02:39:32;;;;;;;8.50;2.42;;;;;;;11.76;73.31;92997.41;4990338;28;20026;-70
2021/05/20 02:41:57;;;;;;;6.88;2.20;;;;;;;11.79;72.76;92987.97;4990419;28;20109;-69
2021/05/20 02:44:24;;;;;;;7.70;2.42;;;;;;;11.77;73.19;93001.66;4998538;28;20026;-70
2021/05/20 02:46:49;;;;;;;6.32;2.22;;;;;;;11.75;73.32;93003.88;4992095;28;20438;-70
2021/05/20 02:49:15;;;;;;;13.20;3.22;;;;;;;11.79;72.92;92998.63;5009987;28;20079;-70
2021/05/20 02:51:40;;;;;;;9.10;2.55;;;;;;;11.80;72.56;93002.84;5009896;28;20025;-70
2021/05/20 02:54:05;;;;;;;9.65;3.67;;;;;;;11.79;72.92;93007.41;5006938;28;20099;-70
2021/05/20 02:56:31;;;;;;;7.22;2.47;;;;;;;11.82;72.54;93009.41;4990576;28;20030;-70
2021/05/20 02:58:56;;;;;;;7.72;2.70;;;;;;;11.77;72.76;93015.00;4975350;28;20471;-70
2021/05/20 03:01:23;;;;;;;8.38;2.50;;;;;;;11.81;72.63;93018.53;5013905;28;20025;-70
2021/05/20 03:03:49;;;;;;;9.27;2.60;;;;;;;11.74;73.47;93012.22;4996292;28;20044;-70
2021/05/20 03:06:14;;;;;;;8.95;2.50;;;;;;;11.73;74.09;93016.78;4992376;28;20018;-70
2021/05/20 03:08:40;;;;;;;10.77;2.70;;;;;;;11.72;73.88;93015.22;4976907;28;20030;-70
2021/05/20 03:11:05;;;;;;;6.35;2.83;;;;;;;11.60;74.31;93017.94;4979372;28;20088;-70
2021/05/20 03:13:31;;;;;;;8.07;2.53;;;;;;;11.64;74.12;93018.81;5014262;28;20088;-70
2021/05/20 03:15:56;;;;;;;7.38;2.25;;;;;;;11.68;74.34;93025.03;5013499;28;20029;-70
2021/05/20 03:18:21;;;;;;;9.02;2.53;;;;;;;11.75;74.32;93027.13;5013558;28;20046;-70
2021/05/20 03:20:47;;;;;;;9.07;3.10;;;;;;;11.64;74.56;93027.63;5012427;28;20018;-70
2021/05/20 03:23:12;;;;;;;5.65;2.55;;;;;;;11.65;74.96;93041.75;4996058;28;20029;-70
2021/05/20 03:25:37;;;;;;;10.45;3.83;;;;;;;11.56;75.43;93049.88;4996076;28;20458;-70
2021/05/20 03:28:03;;;;;;;5.68;3.20;;;;;;;11.50;75.94;93055.78;4995964;28;20061;-70
2021/05/20 03:30:29;;;;;;;8.25;2.90;;;;;;;11.39;76.69;93052.81;5013596;28;20096;-70
2021/05/20 03:32:54;;;;;;;5.53;2.88;;;;;;;11.33;76.74;93051.50;5013601;28;20128;-70
2021/05/20 03:35:20;;;;;;;10.65;3.08;;;;;;;11.36;77.10;93056.94;5012859;28;20038;-70
2021/05/20 03:37:45;;;;;;;4.85;3.03;;;;;;;11.42;77.58;93063.59;4995358;28;20033;-70
2021/05/20 03:40:11;;;;;;;16.55;4.53;;;;;;;11.43;77.19;93075.03;5030716;28;20064;-70
2021/05/20 03:42:36;;;;;;;8.38;2.95;;;;;;;11.51;77.10;93082.13;5033017;28;20063;-70
2021/05/20 03:45:06;;;;;;;3.72;2.08;;;;;;;11.50;74.51;93075.25;5002232;28;20465;-70
2021/05/20 03:47:32;;;;;;;3.50;1.77;;;;;;;11.42;72.91;93076.94;5013254;28;20041;-70
2021/05/20 03:49:57;;;;;;;4.45;1.60;;;;;;;11.39;73.48;93074.94;5013126;28;20432;-70
2021/05/20 03:52:23;;;;;;;2.65;1.60;;;;;;;11.36;72.64;93078.28;5012931;28;20078;-70
2021/05/20 03:54:49;;;;;;;2.22;1.40;;;;;;;11.32;71.64;93082.75;4995469;28;20481;-70
2021/05/20 03:57:14;;;;;;;3.42;1.70;;;;;;;11.26;72.29;93078.75;4998266;28;20021;-70
2021/05/20 03:59:39;;;;;;;2.13;1.25;;;;;;;11.09;71.30;93094.97;5032682;28;20033;-70
2021/05/20 04:02:06;;;;;;;8.02;1.67;;;;;;;11.09;71.97;93087.75;5025462;28;20022;-70
2021/05/20 04:04:31;;;;;;;2.05;1.30;;;;;;;10.99;72.05;93089.00;5012504;28;20028;-70
2021/05/20 04:06:57;;;;;;;6.50;1.50;;;;;;;10.94;71.84;93097.19;5012788;28;20026;-70
2021/05/20 04:09:22;;;;;;;4.22;1.67;;;;;;;10.95;72.29;93090.78;4995012;28;20065;-70
2021/05/20 04:11:48;;;;;;;2.70;1.45;;;;;;;10.95;71.97;93090.78;5011883;28;20029;-70
2021/05/20 04:14:13;;;;;;;2.33;1.30;;;;;;;10.98;71.24;93091.97;5012685;28;20029;-70
2021/05/20 04:16:38;;;;;;;4.80;1.65;;;;;;;10.99;71.93;93089.00;5012276;28;20069;-70
2021/05/20 04:19:04;;;;;;;3.20;1.60;;;;;;;10.99;71.60;93094.31;4995251;28;20074;-70
2021/05/20 04:21:33;;;;;;;2.20;1.35;;;;;;;11.03;70.30;93086.41;5012307;28;20050;-70
2021/05/20 04:23:59;;;;;;;2.05;1.40;;;;;;;11.09;71.16;93084.31;5012634;28;20113;-70
2021/05/20 04:26:24;;;;;;;2.63;1.52;;;;;;;11.08;70.00;93094.19;5012175;28;20544;-70
2021/05/20 04:28:50;;;;;;;4.45;2.38;;;;;;;11.23;72.48;93084.75;5012407;28;20382;-70
2021/05/20 04:31:16;;;;;;;7.70;2.55;;;;;;;11.37;73.69;93087.06;5012838;28;20025;-70
2021/05/20 04:33:41;;;;;;;10.70;2.65;;;;;;;11.53;74.20;93084.47;5012017;28;20028;-70
2021/05/20 04:36:07;;;;;;;3.90;2.22;;;;;;;11.67;73.25;93100.91;5012483;28;20116;-70
2021/05/20 04:38:33;;;;;;;5.78;2.67;;;;;;;11.69;71.61;93105.91;4994552;28;20417;-70
2021/05/20 04:40:58;;;;;;;6.35;2.33;;;;;;;11.73;70.02;93099.53;5012077;28;20029;-70
2021/05/20 04:43:24;;;;;;;2.65;2.13;;;;;;;11.85;69.66;93110.19;4994536;28;20030;-70
2021/05/20 04:45:49;;;;;;;2.70;1.58;;;;;;;11.90;69.59;93106.53;5011742;28;20038;-70
2021/05/20 04:48:15;;;;;;;4.45;1.55;;;;;;;11.89;69.61;93110.31;4994509;28;20080;-70
2021/05/20 04:50:41;;;;;;;7.40;1.83;;;;;;;11.90;68.18;93108.41;4993982;28;20030;-70
2021/05/20 04:53:08;;;;;;;2.83;1.55;;;;;;;11.80;68.57;93101.63;4994098;28;20501;-70
2021/05/20 04:55:33;;;;;;;3.88;1.80;;;;;;;11.81;68.64;93103.97;5011520;28;20025;-70
2021/05/20 04:57:58;;;;;;;2.03;1.33;;;;;;;11.88;67.88;93103.38;5011722;28;20036;-70
2021/05/20 05:00:24;;;;;;;6.68;2.08;;;;;;;11.93;69.23;93105.09;5011879;28;20531;-70
2021/05/20 05:02:49;;;;;;;5.70;2.20;;;;;;;11.97;69.05;93105.97;4993818;28;20091;-70
2021/05/20 05:05:15;;;;;;;2.97;1.75;;;;;;;11.94;65.27;93101.28;4994020;28;20164;-70
2021/05/20 05:07:40;;;;;;;6.18;1.70;;;;;;;11.95;65.92;93118.88;5010481;28;20087;-70
2021/05/20 05:10:06;;;;;;;3.47;1.80;;;;;;;12.02;67.27;93124.41;4994127;28;20038;-70
2021/05/20 05:12:32;;;;;;;3.70;1.58;;;;;;;12.04;68.21;93122.16;5011677;28;20029;-70
2021/05/20 05:14:57;;;;;;;3.22;1.45;;;;;;;12.04;67.65;93128.28;5011350;28;20059;-70
2021/05/20 05:17:24;;;;;;;4.68;1.80;;;;;;;12.00;68.92;93123.97;5011415;28;20520;-70
2021/05/20 05:19:50;;;;;;;5.63;1.77;;;;;;;11.98;69.77;93124.28;4993352;28;20044;-70
2021/05/20 05:22:15;;;;;;;10.13;3.10;;;;;;;11.94;71.18;93123.41;5011200;28;20029;-70
2021/05/20 05:24:41;;;;;;;2.58;1.70;;;;;;;11.88;71.98;93126.66;5011612;28;20076;-70
2021/05/20 05:27:07;;;;;;;6.40;2.33;;;;;;;11.76;72.71;93122.88;5011417;28;20477;-70
2021/05/20 05:29:33;;;;;;;4.03;2.53;;;;;;;11.58;72.86;93138.41;5011527;28;20030;-70
2021/05/20 05:31:59;;;;;;;10.05;2.28;;;;;;;11.37;73.00;93141.19;5010986;28;20033;-70
2021/05/20 05:34:25;;;;;;;3.72;2.08;;;;;;;11.26;73.10;93142.75;5011014;28;20032;-70
2021/05/20 05:36:51;;;;;;;6.00;2.03;;;;;;;11.19;74.23;93146.00;4993536;28;20104;-70
2021/05/20 05:39:16;;;;;;;7.85;1.75;;;;;;;11.05;74.96;93150.84;4993513;28;20026;-70
2021/05/20 05:41:41;;;;;;;2.60;1.50;;;;;;;10.95;74.12;93177.97;5011247;28;20049;-71
2021/05/20 05:44:07;;;;;;;1.85;1.50;;;;;;;10.67;74.33;93154.59;5010596;28;20026;-70
2021/05/20 05:46:34;;;;;;;3.05;1.67;;;;;;;10.50;75.83;93165.44;5010942;28;20025;-71
2021/05/20 05:49:10;;;;;;;1.98;1.60;;;;;;;10.21;76.73;93170.50;4992789;28;20041;-70
2021/05/20 05:51:37;;;;;;;2.40;1.80;;;;;;;10.13;78.00;93190.00;4993187;28;20041;-70
2021/05/20 05:54:03;;;;;;;2.88;1.60;;;;;;;9.96;78.46;93195.50;5010482;28;20056;-70
2021/05/20 05:56:29;;;;;;;2.03;1.70;;;;;;;9.80;79.18;93206.69;5011050;28;20465;-70
2021/05/20 05:58:54;;;;;;;2.05;1.50;;;;;;;9.69;79.41;93205.53;5010944;28;20083;-71
2021/05/20 06:01:19;;;;;;;6.65;1.50;;;;;;;9.62;78.41;93213.22;5009441;28;20025;-71
2021/05/20 06:03:45;;;;;;;2.13;1.25;;;;;;;9.54;78.43;93222.03;5011553;28;20102;-70
2021/05/20 06:06:11;;;;;;;2.45;1.35;;;;;;;9.30;78.92;93228.75;4993896;28;20417;-71
2021/05/20 06:08:37;;;;;;;1.60;1.50;;;;;;;9.26;78.71;93254.41;5010939;28;20064;-70
2021/05/20 06:11:03;;;;;;;4.93;1.92;;;;;;;9.10;80.40;93246.19;4992906;28;20505;-70
2021/05/20 06:13:28;;;;;;;3.97;1.88;;;;;;;9.09;80.94;93243.84;5010711;28;20513;-70
2021/05/20 06:15:53;;;;;;;5.20;1.85;;;;;;;9.01;80.38;93250.72;4992757;28;20026;-70
2021/05/20 06:18:19;;;;;;;2.65;1.80;;;;;;;9.01;80.82;93246.19;5010308;28;20045;-70
2021/05/20 06:20:45;;;;;;;2.15;0.68;;;;;;;9.04;80.19;93240.25;4993121;28;20025;-70
2021/05/20 06:23:10;;;;;;;1.10;0.80;;;;;;;9.16;79.77;93230.81;5010356;28;20073;-70
2021/05/20 06:25:35;;;;;;;1.17;0.60;;;;;;;9.20;79.59;93221.13;5010736;28;20025;-69
2021/05/20 06:28:07;;;;;;;1.90;0.90;;;;;;;9.26;79.67;93233.16;5010718;28;20018;-69
2021/05/20 06:30:33;;;;;;;1.48;0.63;;;;;;;9.32;79.48;93231.06;4991326;28;20022;-69
2021/05/20 06:32:59;;;;;;;1.90;0.60;;;;;;;9.35;78.54;93233.88;5010533;28;20541;-69
2021/05/20 06:35:24;;;;;;;1.08;0.60;;;;;;;9.37;77.37;93223.69;5009874;28;20112;-69
2021/05/20 06:37:50;;;;;;;8.10;0.60;;;;;;;9.32;76.31;93234.53;5009865;28;20025;-69
2021/05/20 06:40:16;;;;;;;0.70;0.50;;;;;;;9.38;77.57;93246.53;5009999;28;20508;-67
2021/05/20 06:42:42;;;;;;;1.42;0.60;;;;;;;9.37;74.61;93249.53;5010477;28;20107;-69
2021/05/20 06:45:08;;;;;;;1.13;0.32;;;;;;;9.31;74.71;93248.91;5010257;28;20025;-69
2021/05/20 06:47:33;;;;;;;3.13;0.45;;;;;;;9.39;75.83;93245.44;5010218;28;20061;-70
2021/05/20 06:50:00;;;;;;;0.98;0.60;;;;;;;9.44;76.46;93250.59;4992788;28;20124;-70
2021/05/20 06:52:25;;;;;;;0.73;0.40;;;;;;;9.48;75.81;93247.28;4992246;28;20494;-69
2021/05/20 06:54:51;;;;;;;1.10;0.60;;;;;;;9.60;75.81;93258.00;5010436;28;20026;-70
2021/05/20 06:57:23;;;;;;;0.75;0.40;;;;;;;9.60;73.35;93258.00;5010335;28;20481;-69
2021/05/20 07:00:02;;;;;;;2.17;0.50;;;;;;;9.59;72.32;93251.16;4991629;28;20157;-69
2021/05/20 07:02:29;;;;;;;1.10;0.30;;;;;;;9.62;70.50;93245.94;5008723;28;20080;-70
2021/05/20 07:04:56;;;;;;;0.73;0.52;;;;;;;9.69;71.36;93250.78;4992406;28;20061;-69
2021/05/20 07:07:22;;;;;;;0.35;0.30;;;;;;;9.89;71.46;93238.59;5010132;28;20034;-69
2021/05/20 07:09:48;;;;;;;1.15;0.30;;;;;;;9.97;69.31;93236.97;4992219;28;20037;-69
2021/05/20 07:12:16;;;;;;;0.52;0.40;;;;;;;10.15;68.98;93242.94;4992314;28;20038;-69
2021/05/20 07:14:43;;;;;;;0.82;0.40;;;;;;;10.22;69.01;93253.88;5008548;28;20100;-69
2021/05/20 07:17:08;;;;;;;0.20;0.20;;;;;;;10.27;67.86;93240.34;5009919;28;20104;-69
2021/05/20 07:19:34;;;;;;;0.65;0.45;;;;;;;10.29;67.71;93232.03;4992021;28;20026;-70
2021/05/20 07:21:59;;;;;;;0.45;0.30;;;;;;;10.37;68.46;93239.97;5010058;28;20033;-69
2021/05/20 07:24:25;;;;;;;0.20;0.20;;;;;;;10.48;69.66;93240.34;5009866;28;20479;-69
2021/05/20 07:26:54;;;;;;;0.77;0.20;;;;;;;10.61;69.43;93235.88;4992060;28;20053;-70
2021/05/20 07:29:19;;;;;;;0.40;0.20;;;;;;;10.66;69.85;93240.22;5010430;28;20025;-69
2021/05/20 07:31:45;;;;;;;0.20;0.20;;;;;;;10.80;68.93;93236.13;5009746;28;20413;-69
2021/05/20 07:34:10;;;;;;;0.30;0.20;;;;;;;10.83;66.99;93242.72;5009608;28;20038;-70
2021/05/20 07:36:36;;;;;;;0.57;0.30;;;;;;;10.75;66.60;93249.69;5009862;28;20030;-70
2021/05/20 07:39:03;;;;;;;0.30;0.20;;;;;;;10.66;66.93;93242.88;5009813;28;20059;-70
2021/05/20 07:41:30;;;;;;;3.08;0.90;;;;;;;10.60;68.19;93251.09;5009692;28;20037;-69
2021/05/20 07:43:55;;;;;;;1.25;0.63;;;;;;;10.55;67.69;93253.16;5009474;28;20084;-69
2021/05/20 07:46:21;;;;;;;0.40;0.22;;;;;;;10.49;67.43;93244.59;5010664;28;20034;-69
2021/05/20 07:48:46;;;;;;;4.03;0.40;;;;;;;10.43;68.77;93257.31;4995947;28;20064;-70
2021/05/20 07:51:12;;;;;;;2.20;0.40;;;;;;;10.44;69.06;93258.09;4996258;28;20503;-67
2021/05/20 07:53:38;;;;;;;0.88;0.30;;;;;;;10.38;70.62;93265.53;4995403;28;20033;-67
2021/05/20 07:56:03;;;;;;;0.52;0.47;;;;;;;10.41;70.75;93261.44;5012703;28;20029;-66
2021/05/20 07:58:29;;;;;;;2.53;0.47;;;;;;;10.42;70.07;93262.97;5013015;28;20429;-66
2021/05/20 08:00:56;;;;;;;1.38;0.43;;;;;;;10.44;69.84;93272.22;5012903;28;20034;-66
2021/05/20 08:11:12;;;;;;;1.23;0.50;;;;;;;10.62;68.74;93291.50;5012481;28;20493;-66
2021/05/20 08:13:37;;;;;;;0.85;0.47;;;;;;;10.72;68.71;93295.66;4995136;28;20032;-66
2021/05/20 08:16:04;;;;;;;1.30;0.45;;;;;;;10.86;68.14;93306.03;5012744;28;20022;-66
2021/05/20 08:18:31;;;;;;;2.10;0.65;;;;;;;11.02;68.08;93306.19;4994550;28;20192;-66
2021/05/20 08:21:00;;;;;;;0.40;0.40;;;;;;;11.15;65.11;93301.69;5012076;28;20397;-66
2021/05/20 08:23:26;;;;;;;0.60;0.40;;;;;;;11.24;64.46;93315.72;4983355;28;20030;-67
2021/05/20 08:25:51;;;;;;;0.45;0.40;;;;;;;11.35;64.17;93306.16;4993010;28;20101;-66
2021/05/20 08:28:17;;;;;;;1.30;0.43;;;;;;;11.39;65.03;93311.63;4975465;28;20180;-67
2021/05/20 08:30:43;;;;;;;1.17;0.38;;;;;;;11.51;64.39;93308.19;4975331;28;20395;-67
2021/05/20 08:33:09;;;;;;;0.85;0.35;;;;;;;11.64;62.68;93304.41;5012301;28;20157;-65
2021/05/20 08:35:35;;;;;;;0.32;0.20;;;;;;;11.69;63.30;93317.56;4994390;28;20038;-67
2021/05/20 08:38:01;;;;;;;0.28;0.20;;;;;;;11.76;61.39;93307.09;4997352;28;20041;-66
2021/05/20 08:40:27;;;;;;;0.30;0.30;;;;;;;11.81;61.88;93325.56;4992299;28;20022;-68
2021/05/20 08:42:52;;;;;;;0.32;0.20;;;;;;;11.85;62.03;93315.00;4992881;28;20080;-66
2021/05/20 08:45:21;;;;;;;0.25;0.25;;;;;;;11.94;62.96;93320.28;4992541;28;20034;-67
2021/05/20 08:47:48;;;;;;;0.30;0.30;;;;;;;12.06;62.09;93311.47;4974952;28;20053;-67
2021/05/20 08:50:15;;;;;;;0.20;0.20;;;;;;;12.13;60.78;93312.47;4992347;28;20030;-67
2021/05/20 08:52:42;;;;;;;4.75;0.50;;;;;;;12.02;61.03;93316.69;4994283;28;20022;-66
2021/05/20 08:55:11;;;;;;;1.08;0.50;;;;;;;12.00;60.42;93324.28;5012057;28;20030;-66
2021/05/20 08:57:37;;;;;;;0.70;0.40;;;;;;;11.89;60.36;93329.28;4993716;28;20022;-66
2021/05/20 09:00:10;;;;;;;0.30;0.30;;;;;;;11.96;60.13;93334.84;5012197;28;20033;-66
2021/05/20 09:02:36;;;;;;;5.90;0.70;;;;;;;12.06;60.96;93327.50;5011573;28;20018;-67
2021/05/20 09:05:03;;;;;;;1.05;0.30;;;;;;;12.10;60.53;93318.47;5011878;28;20512;-66
2021/05/20 09:07:31;;;;;;;1.15;0.43;;;;;;;12.30;60.60;93324.03;5011848;28;20032;-67
2021/05/20 09:10:11;;;;;;;0.47;0.30;;;;;;;12.30;58.68;93324.03;4993977;28;20448;-67
2021/05/20 09:12:37;;;;;;;0.10;0.10;;;;;;;12.38;58.16;93328.47;4993745;28;20041;-67
2021/05/20 09:15:33;;;;;;;0.20;0.20;;;;;;;12.47;59.43;93315.75;4982377;28;20022;-65
2021/05/20 09:18:07;;;;;;;2.15;0.80;;;;;;;12.57;58.28;93328.66;5006226;28;20046;-66
2021/05/20 09:20:34;;;;;;;1.45;0.60;;;;;;;12.72;56.04;93294.28;4993763;28;20037;-65
2021/05/20 09:23:07;;;;;;;1.88;0.43;;;;;;;12.95;56.98;93306.03;5011131;28;20120;-66
2021/05/20 09:25:36;;;;;;;3.58;0.60;;;;;;;13.19;56.71;93307.03;5012487;28;20073;-65
2021/05/20 09:28:02;;;;;;;1.20;0.43;;;;;;;13.20;56.64;93303.22;5013007;28;20509;-66
2021/05/20 09:30:30;;;;;;;2.58;0.30;;;;;;;13.36;53.82;93300.63;5013182;28;20025;-66
2021/05/20 09:33:09;;;;;;;3.03;0.57;;;;;;;13.50;55.65;93297.53;5013192;28;20110;-66
2021/05/20 09:35:45;;;;;;;1.77;0.57;;;;;;;13.62;55.53;93294.78;5030580;28;20116;-67
2021/05/20 09:38:22;;;;;;;0.50;0.30;;;;;;;13.76;53.59;93287.06;4992284;28;20033;-66
2021/05/20 09:40:58;;;;;;;3.83;0.70;;;;;;;13.95;53.85;93289.03;4993207;28;20124;-66
2021/05/20 09:43:32;;;;;;;0.95;0.30;;;;;;;13.94;52.19;93300.88;5011293;28;20033;-66
2021/05/20 09:46:03;;;;;;;2.53;0.45;;;;;;;13.72;53.97;93296.94;5012831;28;20021;-66
2021/05/20 09:48:37;;;;;;;2.70;0.73;;;;;;;13.71;54.72;93299.94;5012669;28;20021;-65
2021/05/20 09:51:04;;;;;;;0.47;0.40;;;;;;;13.70;54.13;93301.84;5030580;28;20024;-65
2021/05/20 09:53:30;;;;;;;1.83;0.70;;;;;;;13.59;53.44;93300.78;5030607;28;20029;-66
2021/05/20 09:55:55;;;;;;;1.50;0.60;;;;;;;13.52;53.92;93304.09;5008203;28;20482;-67
2021/05/20 09:58:23;;;;;;;0.82;0.43;;;;;;;13.58;54.99;93307.28;5010929;28;20038;-66
2021/05/20 10:00:50;;;;;;;1.25;0.40;;;;;;;13.53;54.49;93289.56;5010782;28;20109;-67
2021/05/20 10:03:17;;;;;;;1.13;0.82;;;;;;;13.46;54.59;93299.34;4992842;28;20109;-66
2021/05/20 10:05:47;;;;;;;0.85;0.57;;;;;;;13.51;53.76;93296.38;5010633;28;20026;-67
2021/05/20 10:08:18;;;;;;;3.28;0.70;;;;;;;13.63;53.79;93296.31;5029871;28;20477;-67
2021/05/20 10:10:46;;;;;;;2.38;0.70;;;;;;;13.72;54.14;93304.97;5007228;28;20548;-67
2021/05/20 10:13:17;;;;;;;3.60;1.52;;;;;;;13.78;52.24;93295.53;5010540;28;20033;-66
2021/05/20 10:15:43;;;;;;;4.22;0.73;;;;;;;13.77;52.87;93299.31;5010620;28;20030;-67
2021/05/20 10:18:10;;;;;;;0.63;0.45;;;;;;;13.79;52.08;93291.72;5010336;28;20054;-67
2021/05/20 10:20:37;;;;;;;0.60;0.40;;;;;;;13.85;51.89;93289.56;5010577;28;20036;-67
2021/05/20 10:23:07;;;;;;;3.33;0.60;;;;;;;13.94;52.66;93276.78;5011716;28;20029;-67
2021/05/20 10:25:34;;;;;;;2.75;0.52;;;;;;;14.04;51.90;93270.88;5030162;28;20021;-67
2021/05/20 10:27:59;;;;;;;2.97;0.60;;;;;;;14.00;51.66;93282.63;5028826;28;20029;-67
2021/05/20 10:30:25;;;;;;;1.10;0.60;;;;;;;13.98;51.86;93277.63;5029880;28;20481;-67
2021/05/20 10:32:56;;;;;;;2.80;0.50;;;;;;;14.05;51.55;93277.00;5012685;28;20112;-70
2021/05/20 10:35:21;;;;;;;4.53;0.70;;;;;;;14.28;51.69;93279.03;4992345;28;20080;-69
2021/05/20 10:37:54;;;;;;;0.80;0.52;;;;;;;14.52;50.60;93273.44;5010281;28;20057;-70
2021/05/20 10:40:20;;;;;;;1.70;0.80;;;;;;;14.50;49.54;93281.03;5009882;28;20029;-69
2021/05/20 10:42:45;;;;;;;4.78;0.75;;;;;;;14.56;50.61;93281.59;5010152;28;20025;-70
2021/05/20 10:45:24;;;;;;;5.50;0.90;;;;;;;14.64;50.13;93277.91;5003244;28;20101;-70
2021/05/20 10:48:02;;;;;;;9.52;1.45;;;;;;;14.79;49.48;93281.66;5011866;28;20131;-69
2021/05/20 10:50:52;;;;;;;7.93;1.23;;;;;;;14.67;49.17;93279.09;5011722;28;20112;-69
2021/05/20 10:53:48;;;;;;;2.70;1.10;;;;;;;14.53;48.83;93280.34;5029528;28;20025;-72
2021/05/20 10:56:14;;;;;;;12.07;1.30;;;;;;;14.43;48.85;93276.31;5011264;28;20099;-70
2021/05/20 10:58:40;;;;;;;4.25;1.10;;;;;;;14.48;49.21;93271.81;5011944;28;20033;-71
2021/05/20 11:01:09;;;;;;;3.58;0.75;;;;;;;14.51;47.57;93269.22;5028905;28;20028;-71
2021/05/20 11:03:53;;;;;;;4.50;1.20;;;;;;;14.50;48.38;93262.28;5029244;28;20033;-68
2021/05/20 11:06:23;;;;;;;3.55;1.42;;;;;;;14.48;47.86;93255.72;5029508;28;20033;-69
2021/05/20 11:08:49;;;;;;;5.55;1.55;;;;;;;14.61;48.97;93241.06;5011957;28;20064;-69
2021/05/20 11:11:43;;;;;;;6.03;1.90;;;;;;;14.73;48.69;93248.97;5014185;28;20117;-68
2021/05/20 11:14:14;;;;;;;9.15;1.13;;;;;;;14.90;47.65;93233.56;5009652;28;20045;-69
2021/05/20 11:16:41;;;;;;;3.15;1.20;;;;;;;15.13;46.52;93231.69;4996286;28;20489;-69
2021/05/20 11:19:16;;;;;;;7.28;1.25;;;;;;;15.21;45.24;93236.06;4992413;28;20521;-67
2021/05/20 11:22:03;;;;;;;6.03;0.88;;;;;;;15.33;44.69;93229.75;5012546;28;20040;-68
2021/05/20 11:24:39;;;;;;;1.33;0.77;;;;;;;15.56;44.22;93223.59;5013301;28;20459;-68
2021/05/20 11:27:08;;;;;;;2.85;1.33;;;;;;;15.82;44.10;93229.00;5013565;28;20038;-67
2021/05/20 11:29:39;;;;;;;4.43;1.10;;;;;;;15.94;46.51;93227.28;4995836;28;20030;-68
2021/05/20 11:37:32;;;;;;;2.42;1.25;;;;;;;16.23;45.64;93229.22;5033318;28;20116;-67
2021/05/20 11:39:58;;;;;;;2.85;1.42;;;;;;;16.33;44.94;93225.13;5015061;28;20088;-68
2021/05/20 11:42:32;;;;;;;4.60;1.33;;;;;;;16.33;45.57;93222.44;5015202;28;20032;-69
2021/05/20 11:45:03;;;;;;;3.70;1.83;;;;;;;16.43;44.67;93229.09;5032855;28;20021;-67
2021/05/20 11:47:29;;;;;;;1.92;0.98;;;;;;;16.51;43.48;93230.72;5015021;28;20025;-68
2021/05/20 11:49:55;;;;;;;3.55;1.65;;;;;;;16.52;43.95;93221.50;5033061;28;20029;-68